Airfield :
LOGIN :

Register | Disclaimer

   EN    FR    IT 

 










Legend :    VFR   Marginal VFR   IFR   Intensive IFR   Very Intensive IFR
Visi :
Ceiling :
>= 8 km
>= 3000ft
5 to 8 km
1000 to 3000 ft
1500m to 5 km
500 to 1000 ft
800 to 1500m
200 to 500 ft
< 800m
< 200 ft
Symbols :   Thunderstorms  Fog  Heavy snow  Heavy precipitations  Wind > 20 kt
SIGMETs :     Misc.  Thunderstorms  Icing  Turbulence  Mountain Waves  Volcanic Ashes







- Airport Elevation : 458 ft
- Download approach charts


LFSI - St-Dizier

CURRENT METAR :
  • 181730Z AUTO 24011KT 9999 SCT048 SCT058 BKN084 08/06 Q1006

EXPIRED METARs :
  • 181700Z AUTO 25007KT 9999 BKN042 OVC054 08/07 Q1006
  • 181630Z AUTO 25009KT 220V280 9999 RA FEW010/// SCT032/// BKN044/// ///CB 08/07 Q1006
  • 181600Z AUTO 23009KT 9999 3900 -RADZ BKN036/// BKN042/// OVC054/// ///CB 08/07 Q1006
  • 181530Z AUTO 23006KT 9999 BKN045/// BKN052/// OVC066/// ///TCU 09/08 Q1005
  • 181500Z AUTO 28010KT 7000 -RA SCT044/// BKN054/// OVC064/// ///TCU 09/07 Q1006

TAF TAF LFSI
Valid from the 18 at 15:00 until the 19 at 15:00 UTC


181400Z 1815/1915 28015G25KT 9000 BKN035
TEMPO 1815/1901 4000 -SHRA BKN015TCU OVC030
TEMPO 1910/1915 4000 -SHRA BKN020TCU
No reported NOTAMs for that airfield.



MET'MAP, your aeronautical weather chart ! - Copyright ORBIFLY December 2007 - Disclaimer

ORBIFLY MET'MAP TEAM :

Programming & Development : Alexandra Zaïnal
Concept & Development : Baudouin d'Aumeries
Co-Development & Prog : Marc-Olivier Méhu
Technical & hardware support : Manuel Goepfert

Contact : metmap@orbifly.com




SOURCES & CREDITS :

   NOAA